createdAt,value
2022-08-26T00:02:13.983Z,95.40
2022-08-26T00:04:43.745Z,95.40
2022-08-26T00:07:12.047Z,95.40
2022-08-26T00:09:40.552Z,95.40
2022-08-26T00:12:12.161Z,95.30
2022-08-26T00:14:41.314Z,95.30
2022-08-26T00:17:11.386Z,95.30
2022-08-26T00:19:39.759Z,95.30
2022-08-26T00:22:08.622Z,95.40
2022-08-26T00:24:36.958Z,95.40
2022-08-26T00:27:06.469Z,95.30
2022-08-26T00:29:37.751Z,95.30
2022-08-26T00:32:06.980Z,95.30
2022-08-26T00:34:37.104Z,95.20
2022-08-26T00:37:08.941Z,95.30
2022-08-26T00:39:38.225Z,95.30
2022-08-26T00:42:06.703Z,95.30
2022-08-26T00:44:34.976Z,95.30
2022-08-26T00:47:07.121Z,95.30
2022-08-26T00:49:40.152Z,95.30
2022-08-26T00:52:11.926Z,95.40
2022-08-26T00:54:47.071Z,95.30
2022-08-26T00:57:18.853Z,95.40
2022-08-26T00:59:51.521Z,95.40
2022-08-26T01:02:21.091Z,95.50
2022-08-26T01:04:55.610Z,95.50
2022-08-26T01:07:27.455Z,95.50
2022-08-26T01:10:00.152Z,95.50
2022-08-26T01:12:30.214Z,95.60
2022-08-26T01:14:58.621Z,95.60
2022-08-26T01:17:26.991Z,95.70
2022-08-26T01:20:02.864Z,95.70
2022-08-26T01:22:41.628Z,95.80
2022-08-26T01:25:12.817Z,95.90
2022-08-26T01:27:41.285Z,96.00
2022-08-26T01:30:14.442Z,96.30
2022-08-26T01:32:44.046Z,96.10
2022-08-26T01:35:12.783Z,96.10
2022-08-26T01:37:42.794Z,96.10
2022-08-26T01:40:15.325Z,96.10
2022-08-26T01:42:46.918Z,96.10
2022-08-26T01:45:20.021Z,96.20
2022-08-26T01:47:49.808Z,96.20
2022-08-26T01:50:30.640Z,96.30
2022-08-26T01:53:05.873Z,96.30
2022-08-26T01:55:35.587Z,96.40
2022-08-26T01:58:07.464Z,96.50
2022-08-26T02:00:37.269Z,96.60
2022-08-26T02:03:22.339Z,96.60
2022-08-26T02:05:54.888Z,97.00
2022-08-26T02:08:28.060Z,96.60
2022-08-26T02:10:56.554Z,96.60
2022-08-26T02:13:28.167Z,96.70
2022-08-26T02:15:57.551Z,96.70
2022-08-26T02:18:26.824Z,96.70
2022-08-26T02:20:57.348Z,96.80
2022-08-26T02:23:27.014Z,96.80
2022-08-26T02:25:59.292Z,96.90
2022-08-26T02:28:32.138Z,96.90
2022-08-26T02:31:00.569Z,96.90
2022-08-26T02:33:31.620Z,97.00
2022-08-26T02:36:00.094Z,97.00
2022-08-26T02:38:30.426Z,97.10
2022-08-26T02:40:58.930Z,97.40
2022-08-26T02:43:32.691Z,98.00
2022-08-26T02:46:02.322Z,98.60
2022-08-26T02:48:31.305Z,99.20
2022-08-26T02:51:01.790Z,99.40
2022-08-26T02:53:31.981Z,99.70
2022-08-26T02:56:04.476Z,99.90
2022-08-26T02:58:32.984Z,99.90
2022-08-26T03:01:01.556Z,99.90
2022-08-26T03:03:33.637Z,99.90
2022-08-26T03:06:02.226Z,99.90
2022-08-26T03:08:32.571Z,99.90
2022-08-26T03:11:01.654Z,99.90
2022-08-26T03:13:30.361Z,99.90
2022-08-26T03:15:59.273Z,99.90
2022-08-26T03:18:27.641Z,99.90
2022-08-26T03:20:55.990Z,99.90
2022-08-26T03:23:25.222Z,99.90
2022-08-26T03:25:55.972Z,99.90
2022-08-26T03:28:24.316Z,99.90
2022-08-26T03:30:54.788Z,99.90
2022-08-26T03:33:23.146Z,99.90
2022-08-26T03:35:52.268Z,99.90
2022-08-26T03:38:21.212Z,99.90
2022-08-26T03:40:50.504Z,99.90
2022-08-26T03:43:21.580Z,99.90
2022-08-26T03:45:50.122Z,99.90
2022-08-26T03:48:19.606Z,99.90
2022-08-26T03:50:48.802Z,99.90
2022-08-26T03:53:20.572Z,99.90
2022-08-26T03:55:51.951Z,99.90
2022-08-26T03:58:24.262Z,99.90
2022-08-26T04:00:55.696Z,99.90
2022-08-26T04:03:38.282Z,99.90
2022-08-26T04:06:07.110Z,99.90
2022-08-26T04:08:35.431Z,99.90
2022-08-26T04:11:03.758Z,99.90
2022-08-26T04:13:33.930Z,99.90
2022-08-26T04:16:02.280Z,99.90
2022-08-26T04:18:36.996Z,99.90
2022-08-26T04:21:08.003Z,99.90
2022-08-26T04:23:47.765Z,99.90
2022-08-26T04:26:16.969Z,99.90
2022-08-26T04:28:46.726Z,99.90
2022-08-26T04:31:17.558Z,99.90
2022-08-26T04:33:49.971Z,99.90
2022-08-26T04:36:20.154Z,99.90
2022-08-26T04:38:48.683Z,99.90
2022-08-26T04:41:17.176Z,99.90
2022-08-26T04:43:48.160Z,99.90
2022-08-26T04:46:22.058Z,99.90
2022-08-26T04:48:51.417Z,99.90
2022-08-26T04:51:28.089Z,99.90
2022-08-26T04:53:57.224Z,99.90
2022-08-26T04:56:26.599Z,99.90
2022-08-26T04:58:56.758Z,99.90
2022-08-26T05:01:25.416Z,99.90
2022-08-26T05:03:54.904Z,99.90
2022-08-26T05:06:23.316Z,99.90
2022-08-26T05:08:51.697Z,99.90
2022-08-26T05:11:22.117Z,99.90
2022-08-26T05:13:52.716Z,99.90
2022-08-26T05:16:22.550Z,99.90
2022-08-26T05:18:50.944Z,99.90
2022-08-26T05:21:21.108Z,99.90
2022-08-26T05:23:51.397Z,99.90
2022-08-26T05:26:22.980Z,99.90
2022-08-26T05:28:51.745Z,99.90
2022-08-26T05:31:28.690Z,99.90
2022-08-26T05:33:57.939Z,99.90
2022-08-26T05:36:28.085Z,99.90
2022-08-26T05:38:56.882Z,99.90
2022-08-26T05:41:34.181Z,99.90
2022-08-26T05:44:08.524Z,99.90
2022-08-26T05:46:39.624Z,99.90
2022-08-26T05:49:12.556Z,99.90
2022-08-26T05:51:42.239Z,99.90
2022-08-26T05:54:10.884Z,99.90
2022-08-26T05:56:39.565Z,99.90
2022-08-26T05:59:14.249Z,99.90
2022-08-26T06:01:45.110Z,99.90
2022-08-26T06:04:14.088Z,99.90
2022-08-26T06:06:42.875Z,99.90
2022-08-26T06:09:12.093Z,99.90
2022-08-26T06:11:40.771Z,99.90
2022-08-26T06:14:11.828Z,99.90
2022-08-26T06:16:43.855Z,99.90
2022-08-26T06:19:15.799Z,99.90
2022-08-26T06:21:53.972Z,99.90
2022-08-26T06:24:39.894Z,99.90
2022-08-26T06:27:11.467Z,99.90
2022-08-26T06:29:41.930Z,99.90
2022-08-26T06:32:10.225Z,99.90
2022-08-26T06:34:39.902Z,99.90
2022-08-26T06:37:08.949Z,99.90
2022-08-26T06:39:41.063Z,99.90
2022-08-26T06:42:11.808Z,99.90
2022-08-26T06:44:41.720Z,99.90
2022-08-26T06:47:13.094Z,99.90
2022-08-26T06:49:42.777Z,99.90
2022-08-26T06:52:12.698Z,99.90
2022-08-26T06:54:43.266Z,99.90
2022-08-26T06:57:13.053Z,99.90
2022-08-26T06:59:42.806Z,99.90
2022-08-26T07:02:13.548Z,99.90
2022-08-26T07:04:44.517Z,99.90
2022-08-26T07:07:17.104Z,99.90
2022-08-26T07:09:45.945Z,99.90
2022-08-26T07:12:14.292Z,99.90
2022-08-26T07:14:47.280Z,99.90
2022-08-26T07:17:16.230Z,99.90
2022-08-26T07:19:46.308Z,99.90
2022-08-26T07:22:14.643Z,99.90
2022-08-26T07:24:43.113Z,99.90
2022-08-26T07:27:14.194Z,99.90
2022-08-26T07:29:43.815Z,99.90
2022-08-26T07:32:13.851Z,99.90
2022-08-26T07:34:43.239Z,99.90
2022-08-26T07:37:13.362Z,99.90
2022-08-26T07:39:43.315Z,99.90
2022-08-26T07:42:14.464Z,99.90
2022-08-26T07:44:43.561Z,99.90
2022-08-26T07:47:24.694Z,99.90
2022-08-26T07:49:55.446Z,99.90
2022-08-26T07:52:27.181Z,99.90
2022-08-26T07:54:57.083Z,99.90
2022-08-26T07:57:26.289Z,99.90
2022-08-26T07:59:56.206Z,99.90
2022-08-26T08:02:26.266Z,99.90
2022-08-26T08:04:55.089Z,99.90
2022-08-26T08:07:38.550Z,99.90
2022-08-26T08:10:15.055Z,99.90
2022-08-26T08:12:44.182Z,99.90
2022-08-26T08:15:14.014Z,99.90
2022-08-26T08:17:43.866Z,99.90
2022-08-26T08:20:13.926Z,99.90
2022-08-26T08:22:44.572Z,99.90
2022-08-26T08:25:13.696Z,99.90
2022-08-26T08:27:45.225Z,99.90
2022-08-26T08:30:15.061Z,99.90
2022-08-26T08:32:49.672Z,99.90
2022-08-26T08:35:21.272Z,99.90
2022-08-26T08:37:54.494Z,99.90
2022-08-26T08:40:25.838Z,99.90
2022-08-26T08:43:00.908Z,99.90
2022-08-26T08:45:39.871Z,99.90
2022-08-26T08:48:17.543Z,99.90
2022-08-26T08:50:49.870Z,99.90
2022-08-26T08:53:23.206Z,99.90
2022-08-26T08:56:02.719Z,99.90
2022-08-26T08:58:45.103Z,99.90
2022-08-26T09:01:19.512Z,99.90
2022-08-26T09:03:55.983Z,99.90
2022-08-26T09:06:27.706Z,99.90
2022-08-26T09:08:58.801Z,99.90
2022-08-26T09:11:27.235Z,99.90
2022-08-26T09:13:56.726Z,99.90
2022-08-26T09:16:36.428Z,99.90
2022-08-26T09:19:15.418Z,99.90
2022-08-26T09:21:56.822Z,99.90
2022-08-26T09:24:28.345Z,99.90
2022-08-26T09:26:59.210Z,99.90
2022-08-26T09:29:30.323Z,99.90
2022-08-26T09:32:16.305Z,99.90
2022-08-26T09:34:56.107Z,99.90
2022-08-26T09:37:41.217Z,99.90
2022-08-26T09:40:22.592Z,99.90
2022-08-26T09:43:11.698Z,99.90
2022-08-26T09:45:50.079Z,99.90
2022-08-26T09:48:28.395Z,99.90
2022-08-26T09:50:59.636Z,99.90
2022-08-26T09:53:30.705Z,99.90
2022-08-26T09:56:25.416Z,99.90
2022-08-26T09:58:57.920Z,99.90
2022-08-26T10:01:33.466Z,99.90
2022-08-26T10:04:08.429Z,99.90
2022-08-26T10:06:41.975Z,99.90
2022-08-26T10:09:14.990Z,99.90
2022-08-26T10:11:49.219Z,99.90
2022-08-26T10:14:22.669Z,99.90
2022-08-26T10:16:58.545Z,99.90
2022-08-26T10:19:56.220Z,99.90
2022-08-26T10:22:26.981Z,99.90
2022-08-26T10:24:59.121Z,99.90
2022-08-26T10:27:40.512Z,99.90
2022-08-26T10:30:20.867Z,99.90
2022-08-26T10:32:54.047Z,99.90
2022-08-26T10:35:23.673Z,99.90
2022-08-26T10:37:55.326Z,99.90
2022-08-26T10:40:27.963Z,99.90
2022-08-26T10:43:08.503Z,99.90
2022-08-26T10:45:43.822Z,99.90
2022-08-26T10:48:17.753Z,99.90
2022-08-26T10:50:48.578Z,99.90
2022-08-26T10:53:25.413Z,99.90
2022-08-26T10:56:02.814Z,99.90
2022-08-26T10:58:50.917Z,99.90
2022-08-26T11:01:44.096Z,99.90
2022-08-26T11:04:35.134Z,99.90
2022-08-26T11:07:34.379Z,99.90
2022-08-26T11:10:05.374Z,99.90
2022-08-26T11:12:55.517Z,99.90
2022-08-26T11:16:09.951Z,99.90
2022-08-26T11:18:51.305Z,99.90
2022-08-26T11:21:52.018Z,99.90
2022-08-26T11:25:00.804Z,99.90
2022-08-26T11:28:07.021Z,99.90
2022-08-26T11:30:56.853Z,99.90
2022-08-26T11:33:57.078Z,99.70
2022-08-26T11:36:52.839Z,99.40
2022-08-26T11:39:25.514Z,99.10
2022-08-26T11:41:55.961Z,98.80
2022-08-26T11:44:30.146Z,98.40
2022-08-26T11:47:00.688Z,98.30
2022-08-26T11:49:33.421Z,98.30
2022-08-26T11:52:18.303Z,98.20
2022-08-26T11:55:03.976Z,97.90
2022-08-26T11:57:35.797Z,97.60
2022-08-26T12:00:07.399Z,97.50
2022-08-26T12:02:42.114Z,97.60
2022-08-26T12:05:17.176Z,97.20
2022-08-26T12:07:51.200Z,97.30
2022-08-26T12:10:29.947Z,97.20
2022-08-26T12:13:00.003Z,97.20
2022-08-26T12:15:30.074Z,97.30
2022-08-26T12:17:59.403Z,97.20
2022-08-26T12:20:48.450Z,97.30
2022-08-26T12:23:26.105Z,97.30
2022-08-26T12:26:05.085Z,97.10
2022-08-26T12:28:33.745Z,97.00
2022-08-26T12:31:04.698Z,96.80
2022-08-26T12:33:36.019Z,96.50
2022-08-26T12:36:07.095Z,96.50
2022-08-26T12:38:40.437Z,96.40
2022-08-26T12:41:08.966Z,96.50
2022-08-26T12:43:43.532Z,96.60
2022-08-26T12:46:15.414Z,96.80
2022-08-26T12:48:45.825Z,96.80
2022-08-26T12:51:42.039Z,96.90
2022-08-26T12:54:16.090Z,96.90
2022-08-26T12:56:44.444Z,96.70
2022-08-26T12:59:23.953Z,96.60
2022-08-26T13:01:53.761Z,96.50
2022-08-26T13:04:38.179Z,96.40
2022-08-26T13:07:31.875Z,96.20
2022-08-26T13:10:01.056Z,96.10
2022-08-26T13:12:32.088Z,96.10
2022-08-26T13:15:02.359Z,96.00
2022-08-26T13:17:31.663Z,95.60
2022-08-26T13:20:04.162Z,95.40
2022-08-26T13:22:34.615Z,95.20
2022-08-26T13:25:02.979Z,95.30
2022-08-26T13:27:31.320Z,95.30
2022-08-26T13:30:00.418Z,95.30
2022-08-26T13:32:28.975Z,94.80
2022-08-26T13:34:59.013Z,94.60
2022-08-26T13:37:35.231Z,94.40
2022-08-26T13:40:07.119Z,94.50
2022-08-26T13:42:35.614Z,94.70
2022-08-26T13:45:04.306Z,94.70
2022-08-26T13:47:32.651Z,94.70
2022-08-26T13:50:00.934Z,94.70
2022-08-26T13:52:30.461Z,94.60
2022-08-26T13:55:00.429Z,94.50
2022-08-26T13:57:31.207Z,94.60
2022-08-26T14:00:00.245Z,94.60
2022-08-26T14:02:30.672Z,94.50
2022-08-26T14:04:58.959Z,94.50
2022-08-26T14:07:27.530Z,94.30
2022-08-26T14:09:56.192Z,94.20
2022-08-26T14:12:24.544Z,94.40
2022-08-26T14:14:54.268Z,94.30
2022-08-26T14:17:24.655Z,94.30
2022-08-26T14:19:53.678Z,94.10
2022-08-26T14:22:24.000Z,93.80
2022-08-26T14:24:52.491Z,93.80
2022-08-26T14:27:20.806Z,93.70
2022-08-26T14:29:49.260Z,93.40
2022-08-26T14:32:24.958Z,93.40
2022-08-26T14:34:53.446Z,93.20
2022-08-26T14:37:22.116Z,93.30
2022-08-26T14:39:50.569Z,93.20
2022-08-26T14:42:21.754Z,93.10
2022-08-26T14:44:54.716Z,93.10
2022-08-26T14:47:24.704Z,93.10
2022-08-26T14:49:53.340Z,93.10
2022-08-26T14:52:21.660Z,93.10
2022-08-26T14:54:49.146Z,93.10
2022-08-26T14:57:23.419Z,93.20
2022-08-26T14:59:51.988Z,93.10
2022-08-26T15:02:33.048Z,93.00
2022-08-26T15:05:04.182Z,92.90
2022-08-26T15:07:33.111Z,92.90
2022-08-26T15:10:01.697Z,92.90
2022-08-26T15:12:30.200Z,92.80
2022-08-26T15:14:58.897Z,92.70
2022-08-26T15:17:27.744Z,92.70
2022-08-26T15:19:56.078Z,92.50
2022-08-26T15:22:29.393Z,92.50
2022-08-26T15:24:58.399Z,92.60
2022-08-26T15:27:26.708Z,92.60
2022-08-26T15:29:55.140Z,92.50
2022-08-26T15:32:23.517Z,92.70
2022-08-26T15:34:53.083Z,92.60
2022-08-26T15:37:21.402Z,92.50
2022-08-26T15:39:52.109Z,92.60
2022-08-26T15:42:21.012Z,92.40
2022-08-26T15:44:50.041Z,92.50
2022-08-26T15:47:18.525Z,92.40
2022-08-26T15:49:46.960Z,92.30
2022-08-26T15:52:17.443Z,92.20
2022-08-26T15:54:45.808Z,92.20
2022-08-26T15:57:18.731Z,91.60
2022-08-26T15:59:48.359Z,91.40
2022-08-26T16:02:16.884Z,91.30
2022-08-26T16:04:45.316Z,91.20
2022-08-26T16:07:13.837Z,91.20
2022-08-26T16:09:42.277Z,91.30
2022-08-26T16:12:10.759Z,91.10
2022-08-26T16:14:43.627Z,91.00
2022-08-26T16:17:14.473Z,90.80
2022-08-26T16:19:42.773Z,90.70
2022-08-26T16:22:11.191Z,90.70
2022-08-26T16:24:39.623Z,90.60
2022-08-26T16:27:08.469Z,90.60
2022-08-26T16:29:39.420Z,90.50
2022-08-26T16:32:09.248Z,90.30
2022-08-26T16:34:37.595Z,90.30
2022-08-26T16:37:15.448Z,90.20
2022-08-26T16:39:44.971Z,90.50
2022-08-26T16:42:13.606Z,90.50
2022-08-26T16:44:45.432Z,90.40
2022-08-26T16:47:16.558Z,90.20
2022-08-26T16:49:45.067Z,90.30
2022-08-26T16:52:14.142Z,91.40
2022-08-26T16:54:42.867Z,91.60
2022-08-26T16:57:12.959Z,91.20
2022-08-26T16:59:42.121Z,91.20
2022-08-26T17:02:11.979Z,92.00
2022-08-26T17:04:41.773Z,92.70
2022-08-26T17:07:15.555Z,93.00
2022-08-26T17:09:44.242Z,93.20
2022-08-26T17:12:12.571Z,93.50
2022-08-26T17:14:41.365Z,93.70
2022-08-26T17:17:09.964Z,93.90
2022-08-26T17:19:47.236Z,93.90
2022-08-26T17:22:16.376Z,93.60
2022-08-26T17:24:45.182Z,93.60
2022-08-26T17:27:14.059Z,93.80
2022-08-26T17:29:43.703Z,93.60
2022-08-26T17:32:12.749Z,93.80
2022-08-26T17:34:42.704Z,93.90
2022-08-26T17:37:11.154Z,94.00
2022-08-26T17:39:42.777Z,94.10
2022-08-26T17:42:12.659Z,94.20
2022-08-26T17:44:41.197Z,94.10
2022-08-26T17:47:12.491Z,94.10
2022-08-26T17:49:42.399Z,94.10
2022-08-26T17:52:11.658Z,94.30
2022-08-26T17:54:40.331Z,94.30
2022-08-26T17:57:10.818Z,94.40
2022-08-26T17:59:40.953Z,94.50
2022-08-26T18:02:09.541Z,94.60
2022-08-26T18:04:37.861Z,94.80
2022-08-26T18:07:07.667Z,94.90
2022-08-26T18:09:36.121Z,95.00
2022-08-26T18:12:05.298Z,95.00
2022-08-26T18:14:34.544Z,95.20
2022-08-26T18:17:03.147Z,95.40
2022-08-26T18:19:31.670Z,95.40
2022-08-26T18:22:00.525Z,95.50
2022-08-26T18:24:32.357Z,95.70
2022-08-26T18:27:00.821Z,96.00
2022-08-26T18:29:29.539Z,96.20
2022-08-26T18:31:57.996Z,96.40
2022-08-26T18:34:31.648Z,96.70
2022-08-26T18:37:00.398Z,97.10
2022-08-26T18:39:30.190Z,97.80
2022-08-26T18:41:58.953Z,98.30
2022-08-26T18:44:27.369Z,98.70
2022-08-26T18:46:55.729Z,99.00
2022-08-26T18:49:24.096Z,99.20
2022-08-26T18:51:52.641Z,99.50
2022-08-26T18:54:21.899Z,99.70
2022-08-26T18:56:51.858Z,99.90
2022-08-26T18:59:20.571Z,99.90
2022-08-26T19:01:58.202Z,99.90
2022-08-26T19:04:26.846Z,99.90
2022-08-26T19:06:56.027Z,99.90
2022-08-26T19:09:26.444Z,99.90
2022-08-26T19:11:57.106Z,99.90
2022-08-26T19:14:26.585Z,99.90
2022-08-26T19:16:55.224Z,99.90
2022-08-26T19:19:25.073Z,99.90
2022-08-26T19:21:53.519Z,99.90
2022-08-26T19:24:22.624Z,99.90
2022-08-26T19:26:58.650Z,99.90
2022-08-26T19:29:29.105Z,99.90
2022-08-26T19:31:57.674Z,99.90
2022-08-26T19:34:26.515Z,99.90
2022-08-26T19:36:56.964Z,99.90
2022-08-26T19:39:26.177Z,99.90
2022-08-26T19:41:54.996Z,99.90
2022-08-26T19:44:42.510Z,99.90
2022-08-26T19:47:13.112Z,99.90
2022-08-26T19:49:41.541Z,99.90
2022-08-26T19:52:11.200Z,99.90
2022-08-26T19:54:39.858Z,99.90
2022-08-26T19:57:08.225Z,99.90
2022-08-26T19:59:37.898Z,99.90
2022-08-26T20:02:10.890Z,99.90
2022-08-26T20:04:41.726Z,99.90
2022-08-26T20:07:12.916Z,99.90
2022-08-26T20:09:43.618Z,99.90
2022-08-26T20:12:12.035Z,99.90
2022-08-26T20:14:41.818Z,99.90
2022-08-26T20:17:10.250Z,99.90
2022-08-26T20:19:56.234Z,99.90
2022-08-26T20:22:25.948Z,99.90
2022-08-26T20:24:54.308Z,99.90
2022-08-26T20:27:37.726Z,99.90
2022-08-26T20:30:09.730Z,99.90
2022-08-26T20:32:38.794Z,99.90
2022-08-26T20:35:09.883Z,99.90
2022-08-26T20:37:38.866Z,99.90
2022-08-26T20:40:09.136Z,99.90
2022-08-26T20:42:37.834Z,99.90
2022-08-26T20:45:09.309Z,99.90
2022-08-26T20:47:38.116Z,99.90
2022-08-26T20:50:08.624Z,99.90
2022-08-26T20:52:36.979Z,99.90
2022-08-26T20:55:05.776Z,99.90
2022-08-26T20:57:34.089Z,99.90
2022-08-26T21:00:02.486Z,99.90
2022-08-26T21:02:32.249Z,99.90
2022-08-26T21:05:01.411Z,99.90
2022-08-26T21:07:30.429Z,99.90
2022-08-26T21:09:58.813Z,99.90
2022-08-26T21:12:27.878Z,99.90
2022-08-26T21:14:56.493Z,99.90
2022-08-26T21:17:24.898Z,99.90
2022-08-26T21:19:55.219Z,99.90
2022-08-26T21:22:23.985Z,99.90
2022-08-26T21:24:52.643Z,99.90
2022-08-26T21:27:26.174Z,99.90
2022-08-26T21:29:55.057Z,99.90
2022-08-26T21:32:23.379Z,99.90
2022-08-26T21:34:54.863Z,99.90
2022-08-26T21:37:24.635Z,99.90
2022-08-26T21:39:55.402Z,99.90
2022-08-26T21:42:24.761Z,99.90
2022-08-26T21:44:53.495Z,99.90
2022-08-26T21:47:22.089Z,99.90
2022-08-26T21:49:50.499Z,99.90
2022-08-26T21:52:18.845Z,99.90
2022-08-26T21:54:49.362Z,99.90
2022-08-26T21:57:18.436Z,99.90
2022-08-26T21:59:47.277Z,99.90
2022-08-26T22:02:15.781Z,99.90
2022-08-26T22:04:48.583Z,99.90
2022-08-26T22:07:19.196Z,99.90
2022-08-26T22:09:49.699Z,99.90
2022-08-26T22:12:19.144Z,99.90
2022-08-26T22:14:48.268Z,99.90
2022-08-26T22:17:17.074Z,99.90
2022-08-26T22:19:46.473Z,99.90
2022-08-26T22:22:15.462Z,99.90
2022-08-26T22:24:44.411Z,99.90
2022-08-26T22:27:14.813Z,99.90
2022-08-26T22:29:43.199Z,99.90
2022-08-26T22:32:11.670Z,99.90
2022-08-26T22:34:40.642Z,99.90
2022-08-26T22:37:09.298Z,99.90
2022-08-26T22:39:37.931Z,99.90
2022-08-26T22:42:06.399Z,99.90
2022-08-26T22:44:37.604Z,99.90
2022-08-26T22:47:06.344Z,99.90
2022-08-26T22:49:34.730Z,99.90
2022-08-26T22:52:03.250Z,99.90
2022-08-26T22:54:31.615Z,99.90
2022-08-26T22:57:00.004Z,99.90
2022-08-26T22:59:28.737Z,99.90
2022-08-26T23:01:58.472Z,99.90
2022-08-26T23:04:26.889Z,99.90
2022-08-26T23:06:55.411Z,99.90
2022-08-26T23:09:23.792Z,99.90
2022-08-26T23:11:52.172Z,99.90
2022-08-26T23:14:20.591Z,99.90
2022-08-26T23:16:49.302Z,99.90
2022-08-26T23:19:22.276Z,99.90
2022-08-26T23:21:51.118Z,99.90
2022-08-26T23:24:19.595Z,99.90
2022-08-26T23:26:48.232Z,99.90
2022-08-26T23:29:16.678Z,99.90
2022-08-26T23:31:45.568Z,99.90
2022-08-26T23:34:31.422Z,99.90
2022-08-26T23:37:01.547Z,99.90
2022-08-26T23:39:30.190Z,99.90
2022-08-26T23:41:58.577Z,99.90
2022-08-26T23:44:27.152Z,99.90
2022-08-26T23:46:55.864Z,99.90
2022-08-26T23:49:25.070Z,99.90
2022-08-26T23:52:11.587Z,99.90
2022-08-26T23:54:41.780Z,99.90
2022-08-26T23:57:11.049Z,99.90
2022-08-26T23:59:39.938Z,99.90
